createdAt,value
2023-07-12T00:00:13.696Z,27.05
2023-07-12T00:02:40.684Z,27.00
2023-07-12T00:05:07.599Z,27.02
2023-07-12T00:07:34.411Z,26.96
2023-07-12T00:10:01.278Z,26.95
2023-07-12T00:12:28.165Z,26.96
2023-07-12T00:14:55.058Z,27.03
2023-07-12T00:17:22.235Z,27.00
2023-07-12T00:19:49.280Z,27.00
2023-07-12T00:22:16.185Z,26.93
2023-07-12T00:24:43.135Z,26.91
2023-07-12T00:27:10.137Z,26.88
2023-07-12T00:29:37.065Z,26.89
2023-07-12T00:32:04.022Z,26.92
2023-07-12T00:34:30.853Z,26.90
2023-07-12T00:36:57.747Z,26.95
2023-07-12T00:39:24.645Z,26.93
2023-07-12T00:41:51.600Z,26.97
2023-07-12T00:44:18.441Z,26.89
2023-07-12T00:46:45.312Z,26.90
2023-07-12T00:49:12.275Z,26.94
2023-07-12T00:51:39.275Z,26.87
2023-07-12T00:54:06.206Z,26.89
2023-07-12T00:56:33.117Z,26.83
2023-07-12T00:58:59.990Z,26.91
2023-07-12T01:01:26.837Z,26.83
2023-07-12T01:03:53.978Z,26.83
2023-07-12T01:06:21.066Z,26.87
2023-07-12T01:08:47.889Z,26.89
2023-07-12T01:11:14.739Z,26.83
2023-07-12T01:13:41.633Z,26.81
2023-07-12T01:16:08.562Z,26.76
2023-07-12T01:18:35.576Z,26.75
2023-07-12T01:21:02.609Z,26.71
2023-07-12T01:23:29.582Z,26.73
2023-07-12T01:25:56.533Z,26.73
2023-07-12T01:28:23.724Z,26.76
2023-07-12T01:30:50.563Z,26.80
2023-07-12T01:33:17.380Z,26.78
2023-07-12T01:35:44.385Z,26.78
2023-07-12T01:38:11.317Z,26.77
2023-07-12T01:40:38.264Z,26.75
2023-07-12T01:43:05.278Z,26.78
2023-07-12T01:45:32.191Z,26.67
2023-07-12T01:47:59.116Z,26.63
2023-07-12T01:50:25.994Z,26.62
2023-07-12T01:52:52.864Z,26.65
2023-07-12T01:55:19.815Z,26.72
2023-07-12T01:57:46.650Z,26.67
2023-07-12T02:00:13.581Z,26.65
2023-07-12T02:02:40.597Z,26.64
2023-07-12T02:05:07.758Z,26.65
2023-07-12T02:07:34.584Z,26.65
2023-07-12T02:10:01.446Z,26.63
2023-07-12T02:12:28.386Z,26.63
2023-07-12T02:14:55.315Z,26.59
2023-07-12T02:17:22.187Z,26.61
2023-07-12T02:19:49.251Z,26.57
2023-07-12T02:22:16.153Z,26.56
2023-07-12T02:24:43.153Z,26.57
2023-07-12T02:27:10.183Z,26.57
2023-07-12T02:29:37.162Z,26.60
2023-07-12T02:32:04.231Z,26.57
2023-07-12T02:34:31.106Z,26.59
2023-07-12T02:36:58.137Z,26.52
2023-07-12T02:39:24.991Z,26.50
2023-07-12T02:41:51.812Z,26.51
2023-07-12T02:44:18.629Z,26.47
2023-07-12T02:46:45.524Z,26.48
2023-07-12T02:49:12.598Z,26.56
2023-07-12T02:51:39.558Z,26.48
2023-07-12T02:54:06.418Z,26.50
2023-07-12T02:56:33.306Z,26.52
2023-07-12T02:59:00.207Z,26.48
2023-07-12T03:01:27.343Z,26.53
2023-07-12T03:03:54.253Z,26.48
2023-07-12T03:06:21.115Z,26.46
2023-07-12T03:08:47.946Z,26.45
2023-07-12T03:11:14.850Z,26.46
2023-07-12T03:13:41.817Z,26.46
2023-07-12T03:16:08.795Z,26.43
2023-07-12T03:18:35.835Z,26.42
2023-07-12T03:21:02.858Z,26.44
2023-07-12T03:23:29.906Z,26.45
2023-07-12T03:25:56.814Z,26.44
2023-07-12T03:28:23.867Z,26.41
2023-07-12T03:30:50.836Z,26.42
2023-07-12T03:33:17.681Z,26.36
2023-07-12T03:35:44.720Z,26.39
2023-07-12T03:38:11.694Z,26.35
2023-07-12T03:40:38.510Z,26.38
2023-07-12T03:43:05.295Z,26.30
2023-07-12T03:45:32.133Z,26.37
2023-07-12T03:47:58.961Z,26.33
2023-07-12T03:50:25.863Z,26.38
2023-07-12T03:52:52.749Z,26.34
2023-07-12T03:55:19.604Z,26.33
2023-07-12T03:57:46.490Z,26.36
2023-07-12T04:00:13.297Z,26.34
2023-07-12T04:02:40.213Z,26.37
2023-07-12T04:05:07.056Z,26.30
2023-07-12T04:07:34.043Z,26.31
2023-07-12T04:10:00.989Z,26.31
2023-07-12T04:12:27.988Z,26.28
2023-07-12T04:14:54.883Z,26.28
2023-07-12T04:17:21.743Z,26.30
2023-07-12T04:19:48.611Z,26.21
2023-07-12T04:22:15.446Z,26.28
2023-07-12T04:24:42.313Z,26.30
2023-07-12T04:27:09.325Z,26.31
2023-07-12T04:29:36.179Z,26.27
2023-07-12T04:32:03.225Z,26.19
2023-07-12T04:36:59.987Z,26.21
2023-07-12T04:39:26.960Z,26.22
2023-07-12T04:41:56.853Z,26.21
2023-07-12T04:44:23.699Z,26.30
2023-07-12T04:46:50.649Z,26.21
2023-07-12T04:49:17.548Z,26.23
2023-07-12T04:51:44.542Z,26.21
2023-07-12T04:54:11.623Z,26.12
2023-07-12T04:56:38.518Z,26.14
2023-07-12T04:59:06.248Z,26.18
2023-07-12T05:01:33.247Z,26.19
2023-07-12T05:04:00.226Z,26.11
2023-07-12T05:06:27.161Z,26.10
2023-07-12T05:08:54.106Z,26.09
2023-07-12T05:11:21.119Z,26.12
2023-07-12T05:13:47.938Z,26.11
2023-07-12T05:16:15.067Z,26.09
2023-07-12T05:18:42.023Z,26.08
2023-07-12T05:21:09.335Z,26.05
2023-07-12T05:23:36.349Z,26.03
2023-07-12T05:26:03.307Z,26.03
2023-07-12T05:28:30.352Z,26.07
2023-07-12T05:30:57.353Z,26.03
2023-07-12T05:33:24.477Z,26.03
2023-07-12T05:35:51.502Z,26.05
2023-07-12T05:38:18.352Z,26.01
2023-07-12T05:40:45.361Z,26.05
2023-07-12T05:43:12.346Z,26.00
2023-07-12T05:45:39.351Z,25.99
2023-07-12T05:48:06.295Z,26.02
2023-07-12T05:50:33.103Z,26.06
2023-07-12T05:52:59.936Z,25.97
2023-07-12T05:55:26.848Z,26.01
2023-07-12T05:57:53.948Z,25.96
2023-07-12T06:00:20.860Z,25.98
2023-07-12T06:02:47.803Z,25.97
2023-07-12T06:05:14.767Z,25.90
2023-07-12T06:07:41.765Z,25.92
2023-07-12T06:10:08.753Z,25.87
2023-07-12T06:12:35.559Z,25.92
2023-07-12T06:15:02.417Z,25.88
2023-07-12T06:17:29.376Z,25.92
2023-07-12T06:19:56.272Z,25.89
2023-07-12T06:22:24.205Z,25.97
2023-07-12T06:24:51.723Z,25.92
2023-07-12T06:27:18.587Z,25.88
2023-07-12T06:29:45.676Z,25.85
2023-07-12T06:32:12.674Z,25.88
2023-07-12T06:34:39.640Z,25.91
2023-07-12T06:37:06.466Z,25.87
2023-07-12T06:39:33.319Z,25.85
2023-07-12T06:42:00.137Z,25.83
2023-07-12T06:44:27.041Z,25.83
2023-07-12T06:46:53.987Z,25.85
2023-07-12T06:49:20.965Z,25.89
2023-07-12T06:51:47.809Z,25.92
2023-07-12T06:54:14.923Z,25.83
2023-07-12T06:56:41.832Z,25.82
2023-07-12T06:59:08.858Z,25.86
2023-07-12T07:01:35.828Z,25.80
2023-07-12T07:04:02.786Z,25.78
2023-07-12T07:06:29.688Z,25.78
2023-07-12T07:08:59.617Z,25.83
2023-07-12T07:11:26.500Z,25.86
2023-07-12T07:13:53.544Z,25.80
2023-07-12T07:16:20.489Z,25.90
2023-07-12T07:18:47.564Z,25.77
2023-07-12T07:21:14.720Z,25.79
2023-07-12T07:23:41.614Z,25.82
2023-07-12T07:26:11.093Z,25.80
2023-07-12T07:28:38.571Z,25.78
2023-07-12T07:31:05.526Z,25.78
2023-07-12T07:33:32.406Z,25.81
2023-07-12T07:35:59.222Z,25.76
2023-07-12T07:38:26.119Z,25.74
2023-07-12T07:40:53.066Z,25.78
2023-07-12T07:43:19.928Z,25.77
2023-07-12T07:45:46.764Z,25.75
2023-07-12T07:48:13.702Z,25.72
2023-07-12T07:50:40.519Z,25.69
2023-07-12T07:53:07.365Z,25.73
2023-07-12T07:55:34.190Z,25.75
2023-07-12T07:58:01.125Z,25.70
2023-07-12T08:00:27.978Z,25.69
2023-07-12T08:02:55.078Z,25.77
2023-07-12T08:05:21.947Z,25.73
2023-07-12T08:07:48.785Z,25.70
2023-07-12T08:10:15.945Z,25.75
2023-07-12T08:12:42.876Z,25.74
2023-07-12T08:15:09.859Z,25.73
2023-07-12T08:17:36.850Z,25.73
2023-07-12T08:20:03.825Z,25.74
2023-07-12T08:22:30.799Z,25.75
2023-07-12T08:24:57.746Z,25.77
2023-07-12T08:27:24.735Z,25.78
2023-07-12T08:29:51.688Z,25.77
2023-07-12T08:32:18.498Z,25.73
2023-07-12T08:34:45.375Z,25.69
2023-07-12T08:37:12.280Z,25.73
2023-07-12T08:39:39.283Z,25.72
2023-07-12T08:42:06.340Z,25.69
2023-07-12T08:44:33.251Z,25.73
2023-07-12T08:47:00.066Z,25.67
2023-07-12T08:49:26.955Z,25.68
2023-07-12T08:51:53.875Z,25.73
2023-07-12T08:54:20.854Z,25.68
2023-07-12T08:56:47.709Z,25.70
2023-07-12T08:59:14.857Z,25.70
2023-07-12T09:01:41.848Z,25.69
2023-07-12T09:04:08.710Z,25.72
2023-07-12T09:06:35.555Z,25.68
2023-07-12T09:09:02.674Z,25.68
2023-07-12T09:11:29.605Z,25.63
2023-07-12T09:13:56.581Z,25.64
2023-07-12T09:16:23.613Z,25.67
2023-07-12T09:18:50.534Z,25.66
2023-07-12T09:21:17.405Z,25.69
2023-07-12T09:23:44.480Z,25.69
2023-07-12T09:26:11.405Z,25.63
2023-07-12T09:28:38.246Z,25.62
2023-07-12T09:31:05.093Z,25.61
2023-07-12T09:33:32.064Z,25.62
2023-07-12T09:35:58.963Z,25.64
2023-07-12T09:38:26.007Z,25.66
2023-07-12T09:40:53.034Z,25.66
2023-07-12T09:43:19.931Z,25.74
2023-07-12T09:45:59.581Z,25.66
2023-07-12T09:48:33.706Z,25.68
2023-07-12T09:51:00.596Z,25.63
2023-07-12T09:53:27.415Z,25.60
2023-07-12T09:55:54.455Z,25.59
2023-07-12T09:58:21.303Z,25.64
2023-07-12T10:00:48.157Z,25.64
2023-07-12T10:03:15.087Z,25.63
2023-07-12T10:05:42.040Z,25.64
2023-07-12T10:08:08.972Z,25.62
2023-07-12T10:10:37.436Z,25.63
2023-07-12T10:13:04.471Z,25.64
2023-07-12T10:15:31.341Z,25.65
2023-07-12T10:17:58.425Z,25.62
2023-07-12T10:20:25.541Z,25.60
2023-07-12T10:22:52.523Z,25.60
2023-07-12T10:25:19.405Z,25.59
2023-07-12T10:27:46.504Z,25.61
2023-07-12T10:30:13.434Z,25.60
2023-07-12T10:32:40.422Z,25.57
2023-07-12T10:35:07.355Z,25.63
2023-07-12T10:37:34.275Z,25.54
2023-07-12T10:40:01.371Z,25.54
2023-07-12T10:42:28.218Z,25.58
2023-07-12T10:44:55.146Z,25.58
2023-07-12T10:47:22.021Z,25.61
2023-07-12T10:49:48.939Z,25.55
2023-07-12T10:52:15.853Z,25.56
2023-07-12T10:54:42.848Z,25.57
2023-07-12T10:57:09.769Z,25.54
2023-07-12T10:59:36.590Z,25.55
2023-07-12T11:02:03.489Z,25.53
2023-07-12T11:04:30.437Z,25.52
2023-07-12T11:06:57.406Z,25.55
2023-07-12T11:09:24.388Z,25.54
2023-07-12T11:11:51.206Z,25.55
2023-07-12T11:14:18.077Z,25.60
2023-07-12T11:16:45.035Z,25.58
2023-07-12T11:19:11.964Z,25.54
2023-07-12T11:21:38.907Z,25.52
2023-07-12T11:24:05.821Z,25.52
2023-07-12T11:26:35.700Z,25.52
2023-07-12T11:29:02.605Z,25.57
2023-07-12T11:31:29.642Z,25.55
2023-07-12T11:33:56.540Z,25.56
2023-07-12T11:36:23.421Z,25.54
2023-07-12T11:38:50.316Z,25.48
2023-07-12T11:41:17.264Z,25.52
2023-07-12T11:43:44.378Z,25.59
2023-07-12T11:46:11.345Z,25.55
2023-07-12T11:48:38.202Z,25.55
2023-07-12T11:51:05.125Z,25.52
2023-07-12T11:53:32.188Z,25.51
2023-07-12T11:55:59.181Z,25.53
2023-07-12T11:58:26.139Z,25.49
2023-07-12T12:00:53.119Z,25.50
2023-07-12T12:03:20.078Z,25.50
2023-07-12T12:05:47.101Z,25.49
2023-07-12T12:08:17.217Z,25.54
2023-07-12T12:10:44.198Z,25.49
2023-07-12T12:13:11.125Z,25.52
2023-07-12T12:15:38.405Z,25.56
2023-07-12T12:18:05.482Z,25.54
2023-07-12T12:20:32.802Z,25.48
2023-07-12T12:23:00.316Z,25.48
2023-07-12T12:25:27.399Z,25.56
2023-07-12T12:27:54.268Z,25.49
2023-07-12T12:30:21.297Z,25.56
2023-07-12T12:32:48.271Z,25.58
2023-07-12T12:35:15.108Z,25.57
2023-07-12T12:37:42.009Z,25.61
2023-07-12T12:40:08.848Z,25.54
2023-07-12T12:42:38.673Z,25.56
2023-07-12T12:45:05.482Z,25.54
2023-07-12T12:47:32.466Z,25.54
2023-07-12T12:55:04.298Z,25.57
2023-07-12T13:08:44.583Z,25.58
2023-07-12T13:18:19.170Z,25.57
2023-07-12T13:20:45.560Z,25.56
2023-07-12T13:25:49.334Z,25.58
2023-07-12T13:28:16.206Z,25.58
2023-07-12T13:30:43.163Z,25.60
2023-07-12T13:33:10.193Z,25.63
2023-07-12T13:40:38.717Z,25.59
2023-07-12T13:43:10.807Z,25.62
2023-07-12T13:45:54.279Z,25.59
2023-07-12T13:48:21.270Z,25.60
2023-07-12T13:50:48.102Z,25.62
2023-07-12T13:53:15.079Z,25.62
2023-07-12T13:55:44.969Z,25.65
2023-07-12T13:58:14.833Z,25.65
2023-07-12T14:01:09.239Z,25.64
2023-07-12T14:03:31.765Z,25.67
2023-07-12T14:06:01.166Z,25.64
2023-07-12T14:10:57.849Z,25.64
2023-07-12T14:13:27.709Z,25.68
2023-07-12T14:15:54.659Z,25.66
2023-07-12T14:18:21.532Z,25.71
2023-07-12T14:20:48.447Z,25.73
2023-07-12T14:23:15.404Z,25.72
2023-07-12T14:25:42.370Z,25.73
2023-07-12T14:28:11.543Z,25.72
2023-07-12T14:33:10.169Z,25.75
2023-07-12T14:35:37.111Z,25.75
2023-07-12T14:38:04.109Z,25.76
2023-07-12T14:40:30.943Z,25.78
2023-07-12T14:42:57.935Z,25.77
2023-07-12T14:45:24.750Z,25.79
2023-07-12T14:47:51.625Z,25.79
2023-07-12T14:50:18.534Z,25.80
2023-07-12T14:52:45.543Z,25.83
2023-07-12T14:55:12.568Z,25.84
2023-07-12T14:58:08.659Z,25.83
2023-07-12T15:00:26.314Z,25.82
2023-07-12T15:02:53.300Z,25.81
2023-07-12T15:05:20.276Z,25.87
2023-07-12T15:07:47.240Z,25.89
2023-07-12T15:10:14.206Z,25.88
2023-07-12T15:12:41.195Z,25.88
2023-07-12T15:15:08.043Z,25.90
2023-07-12T15:17:34.900Z,25.88
2023-07-12T15:20:01.892Z,25.90
2023-07-12T15:22:28.815Z,25.90
2023-07-12T15:24:57.042Z,25.94
2023-07-12T15:27:23.882Z,25.93
2023-07-12T15:29:50.947Z,25.95
2023-07-12T15:32:17.901Z,25.96
2023-07-12T15:34:44.916Z,25.96
2023-07-12T15:37:11.802Z,25.99
2023-07-12T15:39:38.646Z,25.99
2023-07-12T15:42:05.560Z,26.01
2023-07-12T15:44:32.488Z,26.03
2023-07-12T15:46:59.392Z,26.01
2023-07-12T15:49:26.472Z,26.03
2023-07-12T15:51:53.313Z,26.06
2023-07-12T15:54:20.243Z,26.06
2023-07-12T15:56:47.283Z,26.07
2023-07-12T15:59:14.362Z,26.08
2023-07-12T16:01:41.177Z,26.09
2023-07-12T16:04:08.024Z,26.11
2023-07-12T16:06:34.980Z,26.14
2023-07-12T16:09:01.892Z,26.17
2023-07-12T16:11:28.746Z,26.11
2023-07-12T16:14:00.796Z,26.00
2023-07-12T16:16:28.816Z,26.02
2023-07-12T16:18:55.873Z,26.16
2023-07-12T16:21:22.735Z,26.19
2023-07-12T16:23:49.632Z,26.26
2023-07-12T16:26:16.569Z,26.28
2023-07-12T16:28:43.528Z,26.29
2023-07-12T16:31:10.470Z,26.32
2023-07-12T16:33:37.356Z,26.33
2023-07-12T16:36:04.394Z,26.33
2023-07-12T16:38:31.245Z,26.35
2023-07-12T16:40:58.190Z,26.35
2023-07-12T16:43:25.324Z,26.36
2023-07-12T16:45:52.150Z,26.38
2023-07-12T16:48:19.035Z,26.38
2023-07-12T16:50:45.968Z,26.40
2023-07-12T16:53:12.920Z,26.40
2023-07-12T16:55:39.768Z,26.42
2023-07-12T16:58:06.885Z,26.43
2023-07-12T17:00:33.830Z,26.44
2023-07-12T17:03:00.800Z,26.45
2023-07-12T17:05:27.881Z,26.45
2023-07-12T17:07:54.863Z,26.47
2023-07-12T17:10:21.972Z,26.47
2023-07-12T17:12:48.856Z,26.47
2023-07-12T17:15:15.756Z,26.49
2023-07-12T17:17:42.853Z,26.49
2023-07-12T17:20:09.670Z,26.51
2023-07-12T17:22:36.890Z,26.52
2023-07-12T17:25:04.026Z,26.52
2023-07-12T17:27:30.864Z,26.53
2023-07-12T17:29:57.734Z,26.53
2023-07-12T17:32:24.754Z,26.53
2023-07-12T17:34:51.859Z,26.54
2023-07-12T17:37:18.707Z,26.55
2023-07-12T17:39:52.211Z,26.55
2023-07-12T17:42:26.234Z,26.55
2023-07-12T17:44:53.041Z,26.57
2023-07-12T17:47:19.896Z,26.57
2023-07-12T17:49:46.695Z,26.58
2023-07-12T17:52:13.668Z,26.58
2023-07-12T17:54:40.520Z,26.59
2023-07-12T17:57:07.388Z,26.59
2023-07-12T17:59:37.240Z,26.58
2023-07-12T18:02:04.223Z,26.59
2023-07-12T18:04:31.210Z,26.59
2023-07-12T18:06:58.053Z,26.60
2023-07-12T18:09:25.155Z,26.59
2023-07-12T18:11:52.009Z,26.61
2023-07-12T18:14:18.952Z,26.61
2023-07-12T18:16:46.041Z,26.62
2023-07-12T18:19:12.972Z,26.62
2023-07-12T18:21:39.853Z,26.64
2023-07-12T18:24:06.883Z,26.63
2023-07-12T18:26:33.896Z,26.64
2023-07-12T18:29:00.717Z,26.65
2023-07-12T18:31:27.626Z,26.64
2023-07-12T18:33:54.644Z,26.65
2023-07-12T18:36:21.712Z,26.65
2023-07-12T18:38:48.517Z,26.66
2023-07-12T18:41:15.401Z,26.65
2023-07-12T18:43:42.193Z,26.67
2023-07-12T18:46:09.308Z,26.66
2023-07-12T18:48:36.574Z,26.67
2023-07-12T18:51:03.396Z,26.66
2023-07-12T18:53:30.203Z,26.66
2023-07-12T18:56:00.056Z,26.67
2023-07-12T18:58:27.105Z,26.67
2023-07-12T19:00:54.007Z,26.68
2023-07-12T19:03:20.884Z,26.69
2023-07-12T19:05:47.999Z,26.69
2023-07-12T19:08:14.973Z,26.67
2023-07-12T19:10:41.956Z,26.67
2023-07-12T19:13:08.773Z,26.68
2023-07-12T19:15:35.856Z,26.69
2023-07-12T19:18:02.911Z,26.68
2023-07-12T19:20:29.823Z,26.68
2023-07-12T19:22:56.796Z,26.67
2023-07-12T19:25:23.703Z,26.69
2023-07-12T19:27:50.567Z,26.68
2023-07-12T19:30:17.660Z,26.67
2023-07-12T19:32:44.701Z,26.69
2023-07-12T19:35:11.846Z,26.67
2023-07-12T19:37:38.698Z,26.68
2023-07-12T19:40:05.788Z,26.67
2023-07-12T19:42:32.765Z,26.68
2023-07-12T19:44:59.657Z,26.67
2023-07-12T19:47:26.497Z,26.66
2023-07-12T19:49:53.399Z,26.65
2023-07-12T19:52:20.234Z,26.65
2023-07-12T19:54:47.145Z,26.64
2023-07-12T19:57:14.092Z,26.65
2023-07-12T19:59:40.970Z,26.64
2023-07-12T20:02:08.019Z,26.64
2023-07-12T20:04:34.975Z,26.63
2023-07-12T20:07:01.994Z,26.64
2023-07-12T20:09:29.093Z,26.64
2023-07-12T20:11:56.048Z,26.63
2023-07-12T20:14:23.321Z,26.62
2023-07-12T20:16:50.234Z,26.63
2023-07-12T20:19:17.270Z,26.63
2023-07-12T20:21:44.202Z,26.61
2023-07-12T20:24:11.091Z,26.60
2023-07-12T20:26:38.131Z,26.60
2023-07-12T20:29:05.110Z,26.60
2023-07-12T20:31:32.137Z,26.59
2023-07-12T20:33:59.052Z,26.60
2023-07-12T20:36:25.954Z,26.58
2023-07-12T20:38:52.977Z,26.58
2023-07-12T20:41:23.113Z,26.58
2023-07-12T20:43:49.980Z,26.57
2023-07-12T20:46:17.179Z,26.58
2023-07-12T20:48:44.259Z,26.57
2023-07-12T20:51:11.082Z,26.56
2023-07-12T20:53:38.223Z,26.56
2023-07-12T20:56:05.149Z,26.55
2023-07-12T20:58:32.159Z,26.56
2023-07-12T21:00:59.091Z,26.54
2023-07-12T21:03:25.940Z,26.55
2023-07-12T21:05:53.033Z,26.54
2023-07-12T21:08:19.903Z,26.54
2023-07-12T21:10:49.857Z,26.54
2023-07-12T21:13:16.715Z,26.53
2023-07-12T21:15:43.628Z,26.53
2023-07-12T21:18:10.554Z,26.52
2023-07-12T21:20:37.389Z,26.52
2023-07-12T21:23:04.292Z,26.52
2023-07-12T21:25:31.210Z,26.50
2023-07-12T21:27:58.142Z,26.50
2023-07-12T21:30:25.142Z,26.50
2023-07-12T21:32:52.161Z,26.50
2023-07-12T21:35:19.083Z,26.49
2023-07-12T21:37:46.063Z,26.48
2023-07-12T21:40:13.101Z,26.47
2023-07-12T21:42:39.998Z,26.49
2023-07-12T21:45:06.982Z,26.49
2023-07-12T21:47:33.956Z,26.49
2023-07-12T21:50:02.670Z,26.48
2023-07-12T21:52:30.095Z,26.47
2023-07-12T21:54:57.112Z,26.48
2023-07-12T21:57:24.037Z,26.46
2023-07-12T21:59:50.934Z,26.46
2023-07-12T22:02:17.857Z,26.47
2023-07-12T22:04:44.884Z,26.48
2023-07-12T22:07:11.783Z,26.46
2023-07-12T22:09:38.837Z,26.44
2023-07-12T22:12:05.786Z,26.44
2023-07-12T22:14:32.771Z,26.42
2023-07-12T22:17:02.681Z,26.43
2023-07-12T22:19:30.053Z,26.41
2023-07-12T22:21:56.939Z,26.38
2023-07-12T22:24:24.085Z,26.40
2023-07-12T22:26:50.942Z,26.38
2023-07-12T22:29:18.047Z,26.37
2023-07-12T22:31:45.012Z,26.38
2023-07-12T22:34:11.925Z,26.37
2023-07-12T22:36:38.900Z,26.38
2023-07-12T22:39:05.909Z,26.42
2023-07-12T22:41:32.819Z,26.42
2023-07-12T22:43:59.710Z,26.41
2023-07-12T22:46:26.801Z,26.45
2023-07-12T22:48:53.715Z,26.45
2023-07-12T22:51:20.585Z,26.48
2023-07-12T22:53:47.685Z,26.50
2023-07-12T22:56:14.628Z,26.43
2023-07-12T22:58:41.529Z,26.41
2023-07-12T23:01:08.556Z,26.38
2023-07-12T23:03:35.596Z,26.35
2023-07-12T23:06:02.807Z,26.38
2023-07-12T23:08:29.963Z,26.40
2023-07-12T23:10:56.904Z,26.40
2023-07-12T23:13:23.881Z,26.39
2023-07-12T23:15:50.792Z,26.39
2023-07-12T23:18:17.761Z,26.39
2023-07-12T23:20:44.629Z,26.36
2023-07-12T23:23:11.476Z,26.37
2023-07-12T23:25:38.490Z,26.39
2023-07-12T23:28:05.351Z,26.36
2023-07-12T23:30:32.229Z,26.38
2023-07-12T23:32:59.276Z,26.35
2023-07-12T23:35:26.155Z,26.33
2023-07-12T23:37:53.051Z,26.31
2023-07-12T23:40:20.049Z,26.36
2023-07-12T23:42:46.942Z,26.34
2023-07-12T23:45:13.947Z,26.36
2023-07-12T23:47:40.856Z,26.29
2023-07-12T23:50:07.877Z,26.30
2023-07-12T23:52:34.879Z,26.31
2023-07-12T23:55:01.709Z,26.29
2023-07-12T23:57:28.734Z,26.27
2023-07-12T23:59:55.545Z,26.28
